createdAt,value
2023-05-09T00:01:35.404Z,102028.00
2023-05-09T00:04:02.526Z,102026.00
2023-05-09T00:06:29.550Z,102031.00
2023-05-09T00:08:56.359Z,102034.00
2023-05-09T00:11:23.938Z,102025.00
2023-05-09T00:13:51.180Z,102036.00
2023-05-09T00:16:18.090Z,102038.00
2023-05-09T00:18:44.614Z,102036.00
2023-05-09T00:21:11.190Z,102043.00
2023-05-09T00:23:38.403Z,102044.00
2023-05-09T00:26:05.332Z,102048.00
2023-05-09T00:28:33.112Z,102037.00
2023-05-09T00:30:59.817Z,102039.00
2023-05-09T00:33:28.513Z,102034.00
2023-05-09T00:35:55.601Z,102034.00
2023-05-09T00:38:25.093Z,102034.00
2023-05-09T00:40:54.024Z,102042.00
2023-05-09T00:43:21.459Z,102038.00
2023-05-09T00:45:48.412Z,102036.00
2023-05-09T00:48:18.895Z,102037.00
2023-05-09T00:50:52.916Z,102032.00
2023-05-09T00:53:21.448Z,102023.00
2023-05-09T00:55:50.836Z,102037.00
2023-05-09T00:58:19.301Z,102021.00
2023-05-09T01:00:46.304Z,102017.00
2023-05-09T01:03:12.860Z,102019.00
2023-05-09T01:06:04.621Z,102014.00
2023-05-09T01:08:52.591Z,102013.00
2023-05-09T01:11:51.280Z,102005.00
2023-05-09T01:14:33.814Z,102008.00
2023-05-09T01:17:25.531Z,102005.00
2023-05-09T01:20:06.062Z,102008.00
2023-05-09T01:22:36.415Z,102007.00
2023-05-09T01:25:19.873Z,102011.00
2023-05-09T01:28:14.355Z,102000.00
2023-05-09T01:30:45.628Z,101999.00
2023-05-09T01:33:17.885Z,101995.00
2023-05-09T01:35:55.118Z,101995.00
2023-05-09T01:38:23.824Z,101994.00
2023-05-09T01:40:54.157Z,101993.00
2023-05-09T01:43:23.405Z,101986.00
2023-05-09T01:45:52.397Z,101988.00
2023-05-09T01:48:19.455Z,102002.00
2023-05-09T01:50:47.382Z,101990.00
2023-05-09T01:53:15.920Z,101984.00
2023-05-09T01:55:44.099Z,101987.00
2023-05-09T01:58:11.830Z,101993.00
2023-05-09T02:00:38.756Z,102006.00
2023-05-09T02:03:06.057Z,101994.00
2023-05-09T02:05:35.240Z,101991.00
2023-05-09T02:08:02.037Z,101989.00
2023-05-09T02:10:30.899Z,101997.00
2023-05-09T02:12:58.107Z,102000.00
2023-05-09T02:15:24.793Z,101993.00
2023-05-09T02:17:51.343Z,101996.00
2023-05-09T02:20:19.996Z,101996.00
2023-05-09T02:22:50.940Z,101986.00
2023-05-09T02:25:18.862Z,101982.00
2023-05-09T02:27:46.558Z,101996.00
2023-05-09T02:30:21.927Z,101997.00
2023-05-09T02:32:51.071Z,101996.00
2023-05-09T02:35:18.172Z,101981.00
2023-05-09T02:37:46.393Z,101992.00
2023-05-09T02:40:14.187Z,101989.00
2023-05-09T02:42:42.633Z,101989.00
2023-05-09T02:45:11.020Z,101985.00
2023-05-09T02:47:38.860Z,101983.00
2023-05-09T02:50:06.660Z,101985.00
2023-05-09T02:52:33.232Z,101982.00
2023-05-09T02:54:59.737Z,101988.00
2023-05-09T02:57:26.726Z,101990.00
2023-05-09T02:59:53.459Z,101996.00
2023-05-09T03:02:20.277Z,101987.00
2023-05-09T03:04:46.788Z,101990.00
2023-05-09T03:07:16.236Z,101983.00
2023-05-09T03:09:43.068Z,101989.00
2023-05-09T03:12:09.578Z,101979.00
2023-05-09T03:14:36.512Z,101981.00
2023-05-09T03:17:03.320Z,101980.00
2023-05-09T03:19:29.837Z,101972.00
2023-05-09T03:21:56.348Z,101973.00
2023-05-09T03:24:23.189Z,101959.00
2023-05-09T03:26:49.733Z,101968.00
2023-05-09T03:29:16.476Z,101964.00
2023-05-09T03:31:43.488Z,101959.00
2023-05-09T03:34:15.016Z,101966.00
2023-05-09T03:36:43.968Z,101957.00
2023-05-09T03:39:11.615Z,101956.00
2023-05-09T03:41:38.071Z,101964.00
2023-05-09T03:44:05.134Z,101957.00
2023-05-09T03:46:31.904Z,101950.00
2023-05-09T03:48:58.709Z,101964.00
2023-05-09T03:51:26.362Z,101953.00
2023-05-09T03:53:52.923Z,101960.00
2023-05-09T03:56:19.673Z,101950.00
2023-05-09T03:58:47.482Z,101952.00
2023-05-09T04:01:14.399Z,101952.00
2023-05-09T04:03:41.561Z,101958.00
2023-05-09T04:06:09.923Z,101956.00
2023-05-09T04:08:37.478Z,101952.00
2023-05-09T04:11:04.814Z,101951.00
2023-05-09T04:13:32.962Z,101954.00
2023-05-09T04:15:59.726Z,101950.00
2023-05-09T04:18:26.275Z,101942.00
2023-05-09T04:20:53.336Z,101949.00
2023-05-09T04:23:19.782Z,101953.00
2023-05-09T04:25:46.505Z,101942.00
2023-05-09T04:28:13.339Z,101949.00
2023-05-09T04:30:40.060Z,101945.00
2023-05-09T04:33:12.359Z,101953.00
2023-05-09T04:35:38.828Z,101949.00
2023-05-09T04:38:05.440Z,101947.00
2023-05-09T04:40:31.955Z,101946.00
2023-05-09T04:43:04.018Z,101946.00
2023-05-09T04:45:30.827Z,101957.00
2023-05-09T04:47:58.847Z,101947.00
2023-05-09T04:50:25.696Z,101944.00
2023-05-09T04:52:52.534Z,101939.00
2023-05-09T04:55:21.518Z,101940.00
2023-05-09T04:57:48.112Z,101938.00
2023-05-09T05:00:19.761Z,101941.00
2023-05-09T05:02:46.865Z,101947.00
2023-05-09T05:05:13.495Z,101933.00
2023-05-09T05:07:40.013Z,101936.00
2023-05-09T05:10:07.048Z,101940.00
2023-05-09T05:12:34.626Z,101940.00
2023-05-09T05:15:02.609Z,101937.00
2023-05-09T05:17:29.644Z,101940.00
2023-05-09T05:19:58.714Z,101933.00
2023-05-09T05:22:25.270Z,101932.00
2023-05-09T05:24:52.039Z,101935.00
2023-05-09T05:27:18.802Z,101924.00
2023-05-09T05:29:46.854Z,101914.00
2023-05-09T05:32:13.468Z,101923.00
2023-05-09T05:34:39.967Z,101918.00
2023-05-09T05:37:06.753Z,101917.00
2023-05-09T05:39:35.764Z,101913.00
2023-05-09T05:42:02.478Z,101904.00
2023-05-09T05:44:29.106Z,101907.00
2023-05-09T05:46:58.345Z,101905.00
2023-05-09T05:49:25.893Z,101902.00
2023-05-09T05:51:52.394Z,101892.00
2023-05-09T05:54:22.066Z,101888.00
2023-05-09T05:56:48.609Z,101881.00
2023-05-09T05:59:15.088Z,101879.00
2023-05-09T06:01:41.989Z,101871.00
2023-05-09T06:04:08.564Z,101858.00
2023-05-09T06:06:37.067Z,101871.00
2023-05-09T06:09:03.664Z,101856.00
2023-05-09T06:11:31.587Z,101860.00
2023-05-09T06:13:58.071Z,101869.00
2023-05-09T06:16:24.920Z,101847.00
2023-05-09T06:18:52.777Z,101840.00
2023-05-09T06:21:21.811Z,101837.00
2023-05-09T06:24:05.924Z,101843.00
2023-05-09T06:26:34.931Z,101838.00
2023-05-09T06:29:06.149Z,101829.00
2023-05-09T06:31:33.242Z,101830.00
2023-05-09T06:34:00.063Z,101826.00
2023-05-09T06:36:27.899Z,101834.00
2023-05-09T06:38:57.138Z,101821.00
2023-05-09T06:41:23.770Z,101823.00
2023-05-09T06:43:50.463Z,101819.00
2023-05-09T06:46:17.153Z,101805.00
2023-05-09T06:48:43.704Z,101799.00
2023-05-09T06:51:15.182Z,101806.00
2023-05-09T06:53:45.164Z,101795.00
2023-05-09T06:56:12.804Z,101814.00
2023-05-09T06:58:39.725Z,101805.00
2023-05-09T07:01:06.281Z,101804.00
2023-05-09T07:03:33.447Z,101781.00
2023-05-09T07:06:01.762Z,101777.00
2023-05-09T07:08:28.290Z,101779.00
2023-05-09T07:10:54.783Z,101774.00
2023-05-09T07:13:21.672Z,101773.00
2023-05-09T07:15:48.301Z,101770.00
2023-05-09T07:18:21.005Z,101760.00
2023-05-09T07:20:48.588Z,101769.00
2023-05-09T07:23:15.137Z,101768.00
2023-05-09T07:25:41.756Z,101768.00
2023-05-09T07:28:08.635Z,101768.00
2023-05-09T07:30:39.306Z,101771.00
2023-05-09T07:33:06.800Z,101765.00
2023-05-09T07:35:33.463Z,101760.00
2023-05-09T07:38:00.655Z,101771.00
2023-05-09T07:40:27.245Z,101770.00
2023-05-09T07:42:55.434Z,101767.00
2023-05-09T07:45:23.762Z,101761.00
2023-05-09T07:47:50.857Z,101762.00
2023-05-09T07:50:18.117Z,101759.00
2023-05-09T07:52:44.917Z,101750.00
2023-05-09T07:55:12.801Z,101748.00
2023-05-09T07:57:40.239Z,101750.00
2023-05-09T08:00:10.723Z,101743.00
2023-05-09T08:02:39.701Z,101746.00
2023-05-09T08:05:07.076Z,101763.00
2023-05-09T08:07:34.713Z,101743.00
2023-05-09T08:10:01.568Z,101739.00
2023-05-09T08:12:28.348Z,101739.00
2023-05-09T08:14:55.374Z,101747.00
2023-05-09T08:17:22.088Z,101749.00
2023-05-09T08:19:51.414Z,101747.00
2023-05-09T08:22:19.415Z,101740.00
2023-05-09T08:24:46.995Z,101731.00
2023-05-09T08:27:20.495Z,101727.00
2023-05-09T08:29:47.294Z,101719.00
2023-05-09T08:32:14.342Z,101725.00
2023-05-09T08:34:41.154Z,101722.00
2023-05-09T08:37:07.933Z,101725.00
2023-05-09T08:39:37.363Z,101723.00
2023-05-09T08:42:03.936Z,101731.00
2023-05-09T08:44:32.320Z,101715.00
2023-05-09T08:47:02.585Z,101721.00
2023-05-09T08:49:29.981Z,101705.00
2023-05-09T08:52:00.342Z,101710.00
2023-05-09T08:54:28.903Z,101712.00
2023-05-09T08:56:55.445Z,101700.00
2023-05-09T08:59:25.368Z,101709.00
2023-05-09T09:01:55.752Z,101714.00
2023-05-09T09:04:30.663Z,101702.00
2023-05-09T09:06:59.490Z,101691.00
2023-05-09T09:09:27.036Z,101688.00
2023-05-09T09:11:53.704Z,101687.00
2023-05-09T09:14:26.156Z,101683.00
2023-05-09T09:16:56.168Z,101682.00
2023-05-09T09:19:30.664Z,101681.00
2023-05-09T09:21:59.856Z,101693.00
2023-05-09T09:24:26.393Z,101697.00
2023-05-09T09:26:53.528Z,101685.00
2023-05-09T09:29:21.076Z,101683.00
2023-05-09T09:31:52.904Z,101682.00
2023-05-09T09:34:23.606Z,101663.00
2023-05-09T09:36:51.568Z,101669.00
2023-05-09T09:39:20.528Z,101659.00
2023-05-09T09:41:47.232Z,101663.00
2023-05-09T09:44:22.112Z,101661.00
2023-05-09T09:46:51.003Z,101658.00
2023-05-09T09:49:19.777Z,101650.00
2023-05-09T09:51:52.006Z,101637.00
2023-05-09T09:54:19.070Z,101644.00
2023-05-09T09:56:47.532Z,101645.00
2023-05-09T09:59:19.561Z,101636.00
2023-05-09T10:02:21.067Z,101625.00
2023-05-09T10:04:48.403Z,101622.00
2023-05-09T10:07:19.127Z,101635.00
2023-05-09T10:09:46.568Z,101634.00
2023-05-09T10:12:17.161Z,101626.00
2023-05-09T10:14:43.862Z,101632.00
2023-05-09T10:17:16.171Z,101609.00
2023-05-09T10:19:50.768Z,101604.00
2023-05-09T10:22:19.349Z,101591.00
2023-05-09T10:25:16.805Z,101583.00
2023-05-09T10:27:46.513Z,101593.00
2023-05-09T10:30:35.898Z,101596.00
2023-05-09T10:33:07.894Z,101598.00
2023-05-09T10:35:40.113Z,101584.00
2023-05-09T10:38:12.114Z,101583.00
2023-05-09T10:40:50.392Z,101577.00
2023-05-09T10:43:16.858Z,101580.00
2023-05-09T10:45:43.968Z,101586.00
2023-05-09T10:48:11.917Z,101574.00
2023-05-09T10:50:40.440Z,101577.00
2023-05-09T10:53:17.099Z,101582.00
2023-05-09T10:55:56.770Z,101560.00
2023-05-09T10:58:29.479Z,101546.00
2023-05-09T11:01:08.034Z,101559.00
2023-05-09T11:03:57.382Z,101562.00
2023-05-09T11:06:44.194Z,101551.00
2023-05-09T11:09:33.730Z,101559.00
2023-05-09T11:12:14.952Z,101544.00
2023-05-09T11:14:47.025Z,101538.00
2023-05-09T11:17:25.860Z,101550.00
2023-05-09T11:19:52.948Z,101552.00
2023-05-09T11:22:21.720Z,101534.00
2023-05-09T11:24:57.831Z,101515.00
2023-05-09T11:27:27.332Z,101520.00
2023-05-09T11:30:01.100Z,101517.00
2023-05-09T11:32:30.681Z,101515.00
2023-05-09T11:35:07.440Z,101502.00
2023-05-09T11:37:39.695Z,101500.00
2023-05-09T11:40:06.950Z,101506.00
2023-05-09T11:42:33.444Z,101504.00
2023-05-09T11:45:00.032Z,101491.00
2023-05-09T11:47:29.397Z,101499.00
2023-05-09T11:49:56.054Z,101493.00
2023-05-09T11:52:22.566Z,101482.00
2023-05-09T11:54:50.026Z,101480.00
2023-05-09T11:57:20.567Z,101475.00
2023-05-09T11:59:48.616Z,101476.00
2023-05-09T12:02:22.545Z,101468.00
2023-05-09T12:04:49.922Z,101460.00
2023-05-09T12:07:17.466Z,101446.00
2023-05-09T12:09:44.398Z,101445.00
2023-05-09T12:12:12.702Z,101430.00
2023-05-09T12:14:40.088Z,101427.00
2023-05-09T12:17:08.372Z,101428.00
2023-05-09T12:19:35.250Z,101426.00
2023-05-09T12:22:05.643Z,101425.00
2023-05-09T12:24:35.757Z,101429.00
2023-05-09T12:27:02.626Z,101415.00
2023-05-09T12:29:31.782Z,101423.00
2023-05-09T12:31:59.511Z,101416.00
2023-05-09T12:34:26.219Z,101412.00
2023-05-09T12:36:53.848Z,101402.00
2023-05-09T12:39:25.525Z,101413.00
2023-05-09T12:42:01.718Z,101390.00
2023-05-09T12:44:30.613Z,101396.00
2023-05-09T12:47:04.915Z,101391.00
2023-05-09T12:49:34.321Z,101371.00
2023-05-09T12:52:05.442Z,101400.00
2023-05-09T12:54:35.312Z,101399.00
2023-05-09T12:57:03.051Z,101391.00
2023-05-09T12:59:32.961Z,101388.00
2023-05-09T13:02:02.151Z,101380.00
2023-05-09T13:04:29.371Z,101371.00
2023-05-09T13:06:58.680Z,101382.00
2023-05-09T13:09:26.214Z,101369.00
2023-05-09T13:11:56.534Z,101361.00
2023-05-09T13:14:23.276Z,101364.00
2023-05-09T13:16:54.001Z,101342.00
2023-05-09T13:19:21.891Z,101352.00
2023-05-09T13:21:49.927Z,101348.00
2023-05-09T13:24:16.691Z,101339.00
2023-05-09T13:26:45.894Z,101355.00
2023-05-09T13:29:15.023Z,101340.00
2023-05-09T13:31:41.527Z,101323.00
2023-05-09T13:34:08.627Z,101322.00
2023-05-09T13:36:36.616Z,101317.00
2023-05-09T13:39:05.560Z,101315.00
2023-05-09T13:41:34.094Z,101321.00
2023-05-09T13:44:02.286Z,101307.00
2023-05-09T13:46:29.083Z,101310.00
2023-05-09T13:48:55.946Z,101311.00
2023-05-09T13:51:25.082Z,101297.00
2023-05-09T13:53:51.677Z,101289.00
2023-05-09T13:56:18.552Z,101269.00
2023-05-09T13:58:45.713Z,101281.00
2023-05-09T14:01:13.784Z,101272.00
2023-05-09T14:03:44.502Z,101276.00
2023-05-09T14:06:15.456Z,101272.00
2023-05-09T14:08:42.154Z,101251.00
2023-05-09T14:11:09.305Z,101251.00
2023-05-09T14:13:35.836Z,101241.00
2023-05-09T14:16:02.351Z,101238.00
2023-05-09T14:18:29.314Z,101243.00
2023-05-09T14:20:56.526Z,101245.00
2023-05-09T14:23:24.766Z,101244.00
2023-05-09T14:25:53.886Z,101231.00
2023-05-09T14:28:20.560Z,101247.00
2023-05-09T14:30:47.231Z,101228.00
2023-05-09T14:33:14.537Z,101245.00
2023-05-09T14:35:42.356Z,101218.00
2023-05-09T14:38:09.031Z,101216.00
2023-05-09T14:40:35.532Z,101214.00
2023-05-09T14:43:03.362Z,101210.00
2023-05-09T14:45:31.708Z,101209.00
2023-05-09T14:47:58.929Z,101192.00
2023-05-09T14:50:25.812Z,101208.00
2023-05-09T14:52:52.409Z,101202.00
2023-05-09T14:55:19.529Z,101197.00
2023-05-09T14:57:46.610Z,101205.00
2023-05-09T15:00:21.245Z,101192.00
2023-05-09T15:02:49.973Z,101192.00
2023-05-09T15:05:17.924Z,101190.00
2023-05-09T15:07:44.370Z,101178.00
2023-05-09T15:10:10.929Z,101174.00
2023-05-09T15:12:37.450Z,101176.00
2023-05-09T15:15:18.128Z,101169.00
2023-05-09T15:17:47.193Z,101164.00
2023-05-09T15:20:21.722Z,101166.00
2023-05-09T15:22:49.962Z,101183.00
2023-05-09T15:25:19.299Z,101164.00
2023-05-09T15:27:46.916Z,101158.00
2023-05-09T15:30:14.084Z,101164.00
2023-05-09T15:32:41.302Z,101161.00
2023-05-09T15:35:09.794Z,101161.00
2023-05-09T15:37:42.649Z,101155.00
2023-05-09T15:40:09.482Z,101158.00
2023-05-09T15:42:40.640Z,101156.00
2023-05-09T15:45:07.999Z,101151.00
2023-05-09T15:47:34.622Z,101143.00
2023-05-09T15:50:01.377Z,101152.00
2023-05-09T15:52:27.903Z,101149.00
2023-05-09T15:54:55.270Z,101147.00
2023-05-09T15:57:23.392Z,101142.00
2023-05-09T15:59:50.076Z,101140.00
2023-05-09T16:02:16.880Z,101138.00
2023-05-09T16:04:44.179Z,101143.00
2023-05-09T16:07:12.435Z,101145.00
2023-05-09T16:09:40.448Z,101135.00
2023-05-09T16:12:07.477Z,101131.00
2023-05-09T16:14:34.008Z,101111.00
2023-05-09T16:17:02.599Z,101124.00
2023-05-09T16:19:31.388Z,101130.00
2023-05-09T16:22:00.513Z,101121.00
2023-05-09T16:24:28.065Z,101118.00
2023-05-09T16:26:55.105Z,101114.00
2023-05-09T16:29:24.319Z,101113.00
2023-05-09T16:31:50.873Z,101109.00
2023-05-09T16:34:18.975Z,101118.00
2023-05-09T16:36:47.590Z,101108.00
2023-05-09T16:39:14.280Z,101107.00
2023-05-09T16:41:42.048Z,101105.00
2023-05-09T16:44:08.523Z,101120.00
2023-05-09T16:46:35.289Z,101111.00
2023-05-09T16:49:02.377Z,101105.00
2023-05-09T16:51:33.102Z,101112.00
2023-05-09T16:53:59.849Z,101105.00
2023-05-09T16:56:26.740Z,101105.00
2023-05-09T16:58:53.325Z,101104.00
2023-05-09T17:01:20.174Z,101107.00
2023-05-09T17:03:48.072Z,101080.00
2023-05-09T17:06:14.666Z,101103.00
2023-05-09T17:08:41.185Z,101101.00
2023-05-09T17:11:08.929Z,101092.00
2023-05-09T17:13:35.788Z,101099.00
2023-05-09T17:16:03.152Z,101099.00
2023-05-09T17:18:37.476Z,101101.00
2023-05-09T17:21:04.677Z,101091.00
2023-05-09T17:23:32.292Z,101091.00
2023-05-09T17:26:00.215Z,101090.00
2023-05-09T17:28:27.040Z,101091.00
2023-05-09T17:30:53.610Z,101095.00
2023-05-09T17:33:27.814Z,101082.00
2023-05-09T17:35:54.822Z,101081.00
2023-05-09T17:38:21.614Z,101078.00
2023-05-09T17:40:50.342Z,101079.00
2023-05-09T17:43:17.160Z,101085.00
2023-05-09T17:45:43.675Z,101080.00
2023-05-09T17:48:10.358Z,101082.00
2023-05-09T17:50:39.423Z,101073.00
2023-05-09T17:53:11.676Z,101072.00
2023-05-09T17:55:38.186Z,101066.00
2023-05-09T17:58:05.839Z,101065.00
2023-05-09T18:00:32.486Z,101073.00
2023-05-09T18:03:00.834Z,101071.00
2023-05-09T18:05:28.757Z,101063.00
2023-05-09T18:07:57.061Z,101079.00
2023-05-09T18:10:24.490Z,101069.00
2023-05-09T18:12:51.328Z,101066.00
2023-05-09T18:15:18.177Z,101062.00
2023-05-09T18:17:48.413Z,101062.00
2023-05-09T18:20:15.294Z,101058.00
2023-05-09T18:22:42.264Z,101057.00
2023-05-09T18:25:09.050Z,101063.00
2023-05-09T18:27:35.500Z,101062.00
2023-05-09T18:30:04.599Z,101060.00
2023-05-09T18:32:34.074Z,101057.00
2023-05-09T18:35:00.782Z,101059.00
2023-05-09T18:37:27.919Z,101063.00
2023-05-09T18:39:55.603Z,101055.00
2023-05-09T18:42:22.157Z,101054.00
2023-05-09T18:44:51.869Z,101056.00
2023-05-09T18:47:18.577Z,101057.00
2023-05-09T18:49:45.247Z,101053.00
2023-05-09T18:52:12.815Z,101063.00
2023-05-09T18:54:41.613Z,101056.00
2023-05-09T18:57:09.744Z,101055.00
2023-05-09T18:59:36.928Z,101050.00
2023-05-09T19:02:03.845Z,101049.00
2023-05-09T19:04:30.554Z,101063.00
2023-05-09T19:06:59.370Z,101061.00
2023-05-09T19:09:26.622Z,101055.00
2023-05-09T19:11:54.450Z,101060.00
2023-05-09T19:14:21.057Z,101060.00
2023-05-09T19:16:50.733Z,101056.00
2023-05-09T19:19:19.711Z,101060.00
2023-05-09T19:21:49.612Z,101052.00
2023-05-09T19:24:19.648Z,101048.00
2023-05-09T19:26:46.254Z,101055.00
2023-05-09T19:29:12.767Z,101041.00
2023-05-09T19:31:39.724Z,101049.00
2023-05-09T19:34:10.780Z,101045.00
2023-05-09T19:36:37.530Z,101045.00
2023-05-09T19:39:06.979Z,101044.00
2023-05-09T19:41:33.877Z,101039.00
2023-05-09T19:44:02.609Z,101040.00
2023-05-09T19:46:30.794Z,101052.00
2023-05-09T19:48:57.650Z,101030.00
2023-05-09T19:51:24.112Z,101041.00
2023-05-09T19:53:50.688Z,101042.00
2023-05-09T19:56:17.900Z,101039.00
2023-05-09T19:58:44.881Z,101043.00
2023-05-09T20:01:12.631Z,101036.00
2023-05-09T20:03:41.050Z,101035.00
2023-05-09T20:06:08.036Z,101036.00
2023-05-09T20:08:35.072Z,101034.00
2023-05-09T20:11:02.686Z,101037.00
2023-05-09T20:13:31.719Z,101031.00
2023-05-09T20:15:59.310Z,101026.00
2023-05-09T20:18:26.820Z,101031.00
2023-05-09T20:20:54.850Z,101026.00
2023-05-09T20:23:23.518Z,101012.00
2023-05-09T20:25:49.997Z,101012.00
2023-05-09T20:28:20.163Z,101007.00
2023-05-09T20:30:46.971Z,101008.00
2023-05-09T20:33:14.404Z,101013.00
2023-05-09T20:35:43.797Z,101007.00
2023-05-09T20:38:15.381Z,101007.00
2023-05-09T20:40:43.821Z,100997.00
2023-05-09T20:43:10.400Z,100999.00
2023-05-09T20:45:42.324Z,100993.00
2023-05-09T20:48:09.096Z,100986.00
2023-05-09T20:50:37.126Z,100993.00
2023-05-09T20:53:07.004Z,100990.00
2023-05-09T20:55:33.554Z,100991.00
2023-05-09T20:58:00.399Z,100989.00
2023-05-09T21:00:29.958Z,100991.00
2023-05-09T21:02:58.485Z,100975.00
2023-05-09T21:05:25.501Z,100979.00
2023-05-09T21:07:52.056Z,100973.00
2023-05-09T21:10:21.123Z,100967.00
2023-05-09T21:12:49.024Z,100966.00
2023-05-09T21:15:18.108Z,100967.00
2023-05-09T21:17:45.021Z,100961.00
2023-05-09T21:20:11.871Z,100953.00
2023-05-09T21:22:38.394Z,100953.00
2023-05-09T21:25:06.442Z,100952.00
2023-05-09T21:27:32.936Z,100954.00
2023-05-09T21:29:59.435Z,100953.00
2023-05-09T21:32:26.435Z,100945.00
2023-05-09T21:34:52.918Z,100952.00
2023-05-09T21:37:20.548Z,100946.00
2023-05-09T21:39:47.397Z,100959.00
2023-05-09T21:42:13.860Z,100944.00
2023-05-09T21:44:40.599Z,100948.00
2023-05-09T21:47:08.896Z,100952.00
2023-05-09T21:49:35.717Z,100944.00
2023-05-09T21:52:10.103Z,100948.00
2023-05-09T21:54:36.678Z,100951.00
2023-05-09T21:57:05.610Z,100933.00
2023-05-09T21:59:33.228Z,100939.00
2023-05-09T22:02:00.034Z,100938.00
2023-05-09T22:04:27.934Z,100940.00
2023-05-09T22:06:54.679Z,100941.00
2023-05-09T22:09:21.345Z,100932.00
2023-05-09T22:11:48.089Z,100936.00
2023-05-09T22:14:17.053Z,100933.00
2023-05-09T22:16:43.941Z,100929.00
2023-05-09T22:19:10.920Z,100934.00
2023-05-09T22:21:37.425Z,100930.00
2023-05-09T22:24:04.222Z,100942.00
2023-05-09T22:26:30.771Z,100934.00
2023-05-09T22:28:58.530Z,100942.00
2023-05-09T22:31:26.828Z,100937.00
2023-05-09T22:33:55.343Z,100931.00
2023-05-09T22:36:22.417Z,100934.00
2023-05-09T22:38:51.156Z,100930.00
2023-05-09T22:41:17.719Z,100935.00
2023-05-09T22:43:45.381Z,100930.00
2023-05-09T22:46:12.027Z,100930.00
2023-05-09T22:48:39.621Z,100926.00
2023-05-09T22:51:06.529Z,100917.00
2023-05-09T22:53:33.306Z,100914.00
2023-05-09T22:55:59.871Z,100918.00
2023-05-09T22:58:26.655Z,100915.00
2023-05-09T23:00:53.452Z,100917.00
2023-05-09T23:03:20.097Z,100914.00
2023-05-09T23:05:46.664Z,100908.00
2023-05-09T23:08:13.379Z,100912.00
2023-05-09T23:10:45.195Z,100907.00
2023-05-09T23:13:12.636Z,100897.00
2023-05-09T23:15:39.176Z,100902.00
2023-05-09T23:18:05.905Z,100892.00
2023-05-09T23:20:32.487Z,100904.00
2023-05-09T23:22:59.070Z,100902.00
2023-05-09T23:25:25.994Z,100909.00
2023-05-09T23:27:52.572Z,100894.00
2023-05-09T23:30:19.522Z,100894.00
2023-05-09T23:32:46.191Z,100893.00
2023-05-09T23:35:12.711Z,100892.00
2023-05-09T23:37:39.257Z,100892.00
2023-05-09T23:40:06.495Z,100885.00
2023-05-09T23:42:33.343Z,100885.00
2023-05-09T23:44:59.897Z,100887.00
2023-05-09T23:47:27.578Z,100889.00
2023-05-09T23:49:54.304Z,100883.00
2023-05-09T23:52:20.851Z,100884.00
2023-05-09T23:54:49.545Z,100885.00
2023-05-09T23:57:16.074Z,100880.00
2023-05-09T23:59:43.214Z,100873.00
